createdAt,value
2023-02-26T00:01:22.306Z,61.92
2023-02-26T00:03:49.931Z,63.12
2023-02-26T00:06:16.362Z,63.47
2023-02-26T00:08:42.999Z,63.42
2023-02-26T00:11:10.849Z,63.66
2023-02-26T00:13:39.506Z,61.96
2023-02-26T00:16:19.974Z,62.63
2023-02-26T00:18:46.725Z,62.58
2023-02-26T00:21:18.218Z,62.07
2023-02-26T00:23:44.772Z,63.88
2023-02-26T00:26:11.264Z,65.13
2023-02-26T00:28:37.865Z,64.55
2023-02-26T00:31:05.155Z,63.78
2023-02-26T00:33:31.574Z,64.13
2023-02-26T00:36:18.585Z,64.91
2023-02-26T00:38:55.884Z,64.11
2023-02-26T00:41:22.755Z,65.19
2023-02-26T00:43:49.302Z,64.55
2023-02-26T00:46:30.123Z,64.63
2023-02-26T00:49:32.276Z,64.26
2023-02-26T00:52:04.545Z,65.62
2023-02-26T00:54:31.996Z,65.63
2023-02-26T00:56:59.256Z,65.34
2023-02-26T00:59:25.728Z,65.78
2023-02-26T01:01:53.429Z,66.32
2023-02-26T01:04:22.518Z,66.66
2023-02-26T01:06:52.364Z,66.18
2023-02-26T01:09:28.481Z,67.57
2023-02-26T01:11:57.951Z,67.08
2023-02-26T01:14:25.011Z,66.88
2023-02-26T01:17:03.780Z,66.71
2023-02-26T01:19:36.976Z,67.38
2023-02-26T01:22:33.802Z,68.17
2023-02-26T01:25:05.275Z,68.38
2023-02-26T01:27:31.898Z,69.65
2023-02-26T01:29:58.529Z,69.78
2023-02-26T01:32:44.183Z,69.31
2023-02-26T01:35:41.685Z,69.73
2023-02-26T01:38:31.213Z,69.75
2023-02-26T01:41:12.616Z,69.49
2023-02-26T01:43:42.337Z,69.52
2023-02-26T01:46:34.733Z,69.30
2023-02-26T01:49:01.905Z,70.38
2023-02-26T01:51:50.144Z,69.85
2023-02-26T01:54:20.838Z,68.32
2023-02-26T01:56:51.626Z,69.38
2023-02-26T01:59:24.168Z,68.78
2023-02-26T02:01:53.348Z,67.57
2023-02-26T02:04:20.427Z,67.19
2023-02-26T02:06:47.853Z,65.74
2023-02-26T02:09:14.128Z,64.27
2023-02-26T02:11:51.884Z,65.72
2023-02-26T02:14:27.064Z,65.55
2023-02-26T02:17:07.284Z,64.00
2023-02-26T02:19:59.096Z,63.61
2023-02-26T02:23:03.128Z,64.75
2023-02-26T02:25:46.091Z,65.97
2023-02-26T02:28:45.558Z,64.54
2023-02-26T02:31:18.809Z,63.89
2023-02-26T02:33:56.735Z,65.14
2023-02-26T02:36:27.050Z,64.71
2023-02-26T02:39:01.975Z,65.90
2023-02-26T02:41:35.381Z,65.88
2023-02-26T02:44:06.863Z,65.26
2023-02-26T02:46:37.361Z,65.87
2023-02-26T02:49:08.739Z,67.83
2023-02-26T02:51:42.847Z,66.52
2023-02-26T02:54:17.505Z,66.60
2023-02-26T02:56:49.769Z,67.31
2023-02-26T02:59:20.704Z,65.93
2023-02-26T03:01:51.317Z,66.64
2023-02-26T03:04:18.519Z,67.03
2023-02-26T03:06:49.916Z,66.62
2023-02-26T03:09:16.489Z,67.28
2023-02-26T03:11:43.148Z,67.55
2023-02-26T03:14:10.772Z,66.92
2023-02-26T03:16:58.744Z,66.90
2023-02-26T03:19:30.972Z,67.44
2023-02-26T03:21:57.235Z,67.94
2023-02-26T03:24:35.254Z,68.13
2023-02-26T03:27:06.293Z,67.04
2023-02-26T03:29:55.106Z,67.33
2023-02-26T03:32:31.051Z,68.21
2023-02-26T03:35:04.811Z,66.88
2023-02-26T03:37:33.912Z,67.13
2023-02-26T03:40:06.017Z,66.49
2023-02-26T03:42:44.746Z,66.69
2023-02-26T03:45:16.435Z,66.73
2023-02-26T03:47:46.476Z,66.23
2023-02-26T03:50:17.805Z,65.85
2023-02-26T03:52:47.110Z,67.38
2023-02-26T03:55:19.305Z,67.01
2023-02-26T03:57:46.264Z,67.62
2023-02-26T04:00:14.798Z,66.40
2023-02-26T04:02:52.828Z,66.82
2023-02-26T04:05:23.066Z,68.39
2023-02-26T04:07:49.982Z,68.98
2023-02-26T04:10:19.922Z,68.21
2023-02-26T04:12:46.193Z,68.80
2023-02-26T04:15:12.642Z,68.49
2023-02-26T04:17:42.121Z,68.66
2023-02-26T04:20:10.783Z,70.00
2023-02-26T04:22:37.264Z,70.26
2023-02-26T04:25:03.982Z,70.27
2023-02-26T04:27:30.256Z,69.42
2023-02-26T04:29:56.532Z,70.15
2023-02-26T04:32:22.863Z,70.07
2023-02-26T04:34:49.193Z,71.14
2023-02-26T04:37:15.473Z,70.07
2023-02-26T04:39:41.807Z,70.69
2023-02-26T04:42:08.094Z,70.56
2023-02-26T04:44:34.377Z,71.43
2023-02-26T04:47:00.740Z,70.99
2023-02-26T04:49:27.117Z,70.48
2023-02-26T04:51:53.577Z,71.90
2023-02-26T04:54:19.911Z,71.36
2023-02-26T04:56:46.282Z,71.62
2023-02-26T04:59:12.673Z,71.61
2023-02-26T05:01:39.038Z,71.38
2023-02-26T05:04:05.378Z,71.65
2023-02-26T05:06:31.685Z,71.89
2023-02-26T05:08:58.037Z,72.13
2023-02-26T05:11:24.445Z,72.37
2023-02-26T05:13:50.817Z,72.56
2023-02-26T05:16:17.238Z,72.26
2023-02-26T05:18:43.566Z,73.21
2023-02-26T05:21:09.976Z,72.77
2023-02-26T05:23:36.347Z,72.94
2023-02-26T05:26:03.111Z,73.21
2023-02-26T05:28:29.584Z,73.25
2023-02-26T05:30:57.549Z,73.22
2023-02-26T05:33:24.119Z,73.15
2023-02-26T05:35:50.724Z,74.64
2023-02-26T05:38:17.096Z,73.65
2023-02-26T05:40:43.380Z,74.30
2023-02-26T05:43:10.081Z,74.02
2023-02-26T05:45:36.456Z,74.54
2023-02-26T05:48:02.933Z,74.16
2023-02-26T05:50:30.480Z,73.52
2023-02-26T05:52:57.321Z,73.63
2023-02-26T05:55:23.804Z,73.79
2023-02-26T05:57:50.300Z,73.80
2023-02-26T06:00:17.009Z,73.61
2023-02-26T06:02:43.391Z,73.55
2023-02-26T06:05:10.135Z,73.63
2023-02-26T06:07:36.461Z,73.16
2023-02-26T06:10:02.819Z,73.00
2023-02-26T06:12:29.134Z,72.81
2023-02-26T06:14:55.437Z,72.37
2023-02-26T06:17:21.849Z,71.85
2023-02-26T06:19:48.189Z,72.24
2023-02-26T06:22:14.467Z,72.77
2023-02-26T06:24:40.785Z,71.68
2023-02-26T06:27:07.282Z,71.54
2023-02-26T06:29:34.387Z,71.92
2023-02-26T06:32:00.825Z,71.21
2023-02-26T06:34:27.176Z,72.37
2023-02-26T06:36:53.490Z,72.16
2023-02-26T06:39:19.911Z,71.65
2023-02-26T06:41:46.263Z,70.83
2023-02-26T06:44:12.752Z,71.04
2023-02-26T06:46:39.202Z,71.46
2023-02-26T06:49:06.015Z,71.70
2023-02-26T06:51:32.496Z,71.33
2023-02-26T06:53:58.857Z,71.14
2023-02-26T06:56:25.826Z,70.84
2023-02-26T06:58:52.422Z,70.56
2023-02-26T07:01:19.045Z,70.69
2023-02-26T07:03:45.350Z,69.61
2023-02-26T07:06:26.558Z,69.45
2023-02-26T07:08:53.920Z,71.01
2023-02-26T07:11:20.380Z,68.77
2023-02-26T07:13:46.687Z,69.63
2023-02-26T07:16:13.211Z,68.08
2023-02-26T07:18:39.722Z,67.64
2023-02-26T07:21:06.133Z,68.18
2023-02-26T07:23:32.462Z,67.97
2023-02-26T07:25:58.821Z,67.27
2023-02-26T07:28:25.157Z,67.41
2023-02-26T07:30:54.461Z,67.13
2023-02-26T07:33:21.166Z,66.45
2023-02-26T07:35:48.039Z,66.44
2023-02-26T07:38:14.422Z,66.83
2023-02-26T07:40:40.728Z,66.62
2023-02-26T07:43:07.036Z,66.06
2023-02-26T07:45:33.615Z,66.08
2023-02-26T07:48:00.519Z,66.54
2023-02-26T07:50:27.581Z,65.66
2023-02-26T07:52:53.860Z,65.78
2023-02-26T07:55:20.688Z,65.08
2023-02-26T07:57:47.272Z,65.65
2023-02-26T08:00:14.807Z,65.00
2023-02-26T08:02:41.354Z,63.93
2023-02-26T08:05:08.157Z,64.19
2023-02-26T08:07:34.523Z,63.88
2023-02-26T08:10:00.989Z,63.04
2023-02-26T08:12:27.337Z,62.98
2023-02-26T08:14:53.632Z,62.90
2023-02-26T08:17:19.989Z,62.76
2023-02-26T08:19:46.282Z,62.60
2023-02-26T08:22:12.701Z,61.70
2023-02-26T08:24:39.247Z,62.12
2023-02-26T08:27:05.666Z,61.38
2023-02-26T08:29:31.944Z,61.04
2023-02-26T08:31:58.307Z,59.78
2023-02-26T08:34:24.858Z,58.72
2023-02-26T08:36:51.201Z,57.29
2023-02-26T08:39:17.678Z,56.92
2023-02-26T08:41:44.019Z,56.78
2023-02-26T08:44:10.586Z,54.71
2023-02-26T08:46:37.225Z,54.11
2023-02-26T08:49:03.672Z,52.57
2023-02-26T08:51:30.010Z,52.87
2023-02-26T08:53:56.690Z,54.03
2023-02-26T08:56:23.161Z,54.83
2023-02-26T08:58:49.748Z,55.58
2023-02-26T09:01:16.107Z,55.60
2023-02-26T09:03:42.444Z,56.62
2023-02-26T09:06:08.761Z,56.51
2023-02-26T09:08:35.140Z,55.58
2023-02-26T09:11:02.361Z,55.45
2023-02-26T09:13:29.692Z,55.23
2023-02-26T09:15:56.230Z,54.31
2023-02-26T09:18:22.613Z,55.17
2023-02-26T09:20:49.246Z,54.93
2023-02-26T09:23:15.576Z,54.83
2023-02-26T09:25:42.118Z,54.90
2023-02-26T09:28:08.443Z,53.72
2023-02-26T09:30:34.968Z,54.42
2023-02-26T09:33:01.464Z,54.16
2023-02-26T09:35:27.786Z,54.90
2023-02-26T09:37:54.143Z,55.35
2023-02-26T09:40:32.285Z,54.03
2023-02-26T09:43:23.491Z,54.93
2023-02-26T09:45:51.755Z,54.48
2023-02-26T09:48:20.374Z,54.33
2023-02-26T09:50:58.177Z,53.62
2023-02-26T09:53:31.189Z,53.42
2023-02-26T09:56:19.634Z,53.36
2023-02-26T09:58:46.529Z,54.25
2023-02-26T10:01:23.565Z,54.42
2023-02-26T10:04:18.829Z,53.66
2023-02-26T10:07:10.049Z,52.56
2023-02-26T10:09:51.490Z,52.95
2023-02-26T10:12:21.269Z,53.41
2023-02-26T10:15:10.565Z,52.44
2023-02-26T10:17:52.563Z,52.48
2023-02-26T10:20:29.584Z,52.25
2023-02-26T10:23:20.819Z,49.38
2023-02-26T10:26:01.802Z,48.02
2023-02-26T10:28:39.453Z,46.73
2023-02-26T10:31:18.210Z,47.05
2023-02-26T10:34:29.444Z,45.28
2023-02-26T10:37:05.665Z,45.78
2023-02-26T10:39:50.374Z,44.19
2023-02-26T10:42:23.996Z,43.34
2023-02-26T10:45:27.257Z,43.33
2023-02-26T10:48:31.399Z,43.19
2023-02-26T10:51:00.606Z,43.90
2023-02-26T10:53:30.699Z,45.14
2023-02-26T10:56:08.883Z,46.16
2023-02-26T10:58:35.627Z,47.93
2023-02-26T11:01:02.688Z,48.67
2023-02-26T11:03:36.010Z,47.73
2023-02-26T11:06:03.808Z,49.47
2023-02-26T11:08:46.100Z,48.47
2023-02-26T11:11:45.773Z,48.96
2023-02-26T11:14:12.638Z,48.27
2023-02-26T11:16:52.378Z,48.54
2023-02-26T11:19:25.200Z,49.13
2023-02-26T11:21:51.700Z,48.41
2023-02-26T11:24:35.379Z,46.51
2023-02-26T11:27:05.083Z,44.68
2023-02-26T11:29:40.824Z,43.67
2023-02-26T11:32:17.644Z,43.82
2023-02-26T11:34:49.938Z,44.41
2023-02-26T11:37:29.342Z,43.99
2023-02-26T11:39:59.605Z,43.52
2023-02-26T11:42:27.657Z,44.41
2023-02-26T11:44:54.939Z,45.20
2023-02-26T11:47:28.486Z,44.73
2023-02-26T11:49:55.686Z,45.21
2023-02-26T11:52:40.347Z,46.14
2023-02-26T11:55:19.574Z,44.65
2023-02-26T11:57:50.273Z,46.04
2023-02-26T12:00:20.408Z,46.50
2023-02-26T12:02:47.031Z,46.21
2023-02-26T12:05:17.074Z,45.74
2023-02-26T12:07:46.716Z,45.16
2023-02-26T12:10:28.724Z,45.41
2023-02-26T12:13:11.401Z,44.49
2023-02-26T12:15:50.892Z,43.42
2023-02-26T12:18:35.152Z,42.55
2023-02-26T12:21:04.248Z,42.04
2023-02-26T12:23:58.159Z,42.31
2023-02-26T12:26:29.746Z,41.33
2023-02-26T12:29:07.202Z,41.15
2023-02-26T12:31:55.245Z,42.56
2023-02-26T12:34:40.376Z,42.27
2023-02-26T12:37:45.980Z,40.90
2023-02-26T12:40:43.725Z,42.56
2023-02-26T12:43:26.245Z,42.10
2023-02-26T12:46:07.787Z,42.40
2023-02-26T12:48:51.442Z,43.55
2023-02-26T12:51:20.567Z,41.86
2023-02-26T12:53:59.824Z,40.96
2023-02-26T12:56:48.690Z,40.44
2023-02-26T12:59:20.014Z,42.39
2023-02-26T13:02:03.724Z,42.55
2023-02-26T13:05:07.479Z,42.61
2023-02-26T13:07:56.596Z,42.53
2023-02-26T13:10:38.033Z,42.55
2023-02-26T13:13:21.750Z,42.89
2023-02-26T13:16:00.723Z,43.59
2023-02-26T13:18:51.461Z,43.81
2023-02-26T13:21:27.535Z,44.04
2023-02-26T13:24:16.171Z,44.16
2023-02-26T13:26:43.544Z,44.38
2023-02-26T13:29:18.635Z,44.94
2023-02-26T13:31:50.831Z,44.67
2023-02-26T13:34:26.274Z,44.15
2023-02-26T13:36:53.524Z,44.52
2023-02-26T13:39:36.214Z,44.61
2023-02-26T13:42:14.509Z,44.76
2023-02-26T13:45:14.718Z,45.21
2023-02-26T13:47:47.123Z,44.60
2023-02-26T13:50:33.415Z,45.29
2023-02-26T13:53:04.542Z,46.50
2023-02-26T13:55:47.341Z,45.42
2023-02-26T13:58:41.039Z,45.17
2023-02-26T14:01:07.555Z,45.00
2023-02-26T14:03:47.277Z,45.77
2023-02-26T14:06:36.141Z,45.81
2023-02-26T14:09:05.523Z,45.79
2023-02-26T14:11:56.633Z,44.43
2023-02-26T14:14:23.076Z,44.44
2023-02-26T14:17:09.788Z,45.74
2023-02-26T14:20:22.122Z,43.47
2023-02-26T14:22:53.762Z,43.27
2023-02-26T14:25:28.210Z,43.08
2023-02-26T14:28:19.208Z,43.42
2023-02-26T14:30:53.715Z,41.62
2023-02-26T14:33:29.272Z,41.47
2023-02-26T14:35:57.520Z,41.23
2023-02-26T14:38:27.252Z,41.22
2023-02-26T14:41:21.016Z,40.32
2023-02-26T14:43:57.152Z,39.38
2023-02-26T14:46:24.466Z,41.11
2023-02-26T14:48:51.679Z,40.29
2023-02-26T14:51:24.189Z,38.17
2023-02-26T14:54:18.715Z,37.59
2023-02-26T14:57:11.595Z,39.05
2023-02-26T14:59:59.658Z,38.41
2023-02-26T15:02:32.381Z,39.31
2023-02-26T15:05:22.148Z,40.91
2023-02-26T15:08:22.901Z,40.19
2023-02-26T15:11:06.464Z,38.58
2023-02-26T15:14:07.558Z,40.17
2023-02-26T15:16:46.323Z,38.71
2023-02-26T15:19:32.543Z,38.58
2023-02-26T15:22:03.092Z,39.84
2023-02-26T15:24:31.270Z,40.13
2023-02-26T15:27:01.965Z,40.22
2023-02-26T15:29:32.247Z,41.31
2023-02-26T15:32:05.561Z,41.80
2023-02-26T15:34:33.888Z,41.36
2023-02-26T15:37:01.172Z,40.42
2023-02-26T15:39:27.462Z,41.14
2023-02-26T15:41:56.025Z,40.82
2023-02-26T15:44:28.368Z,41.77
2023-02-26T15:46:58.172Z,42.03
2023-02-26T15:49:37.219Z,41.83
2023-02-26T15:52:05.423Z,42.59
2023-02-26T15:54:43.062Z,42.68
2023-02-26T15:57:11.442Z,43.44
2023-02-26T15:59:43.838Z,43.41
2023-02-26T16:02:14.764Z,43.05
2023-02-26T16:04:41.886Z,43.91
2023-02-26T16:07:09.920Z,42.21
2023-02-26T16:13:31.141Z,42.94
2023-02-26T16:16:04.534Z,43.20
2023-02-26T16:18:32.976Z,43.08
2023-02-26T16:21:02.857Z,43.22
2023-02-26T16:23:43.842Z,42.03
2023-02-26T16:26:17.109Z,42.74
2023-02-26T16:28:46.894Z,43.09
2023-02-26T16:31:20.392Z,43.24
2023-02-26T16:33:55.020Z,42.48
2023-02-26T16:36:26.012Z,42.24
2023-02-26T16:39:10.124Z,42.39
2023-02-26T16:41:39.064Z,42.26
2023-02-26T16:44:31.296Z,43.03
2023-02-26T16:46:59.009Z,42.67
2023-02-26T16:49:29.812Z,42.70
2023-02-26T16:51:57.360Z,42.75
2023-02-26T16:54:27.395Z,42.70
2023-02-26T16:57:00.113Z,45.24
2023-02-26T16:59:31.380Z,42.86
2023-02-26T17:02:03.134Z,44.19
2023-02-26T17:04:34.248Z,44.49
2023-02-26T17:07:02.057Z,44.37
2023-02-26T17:09:42.148Z,45.16
2023-02-26T17:12:19.584Z,44.26
2023-02-26T17:14:52.397Z,45.33
2023-02-26T17:17:18.830Z,45.79
2023-02-26T17:19:45.186Z,46.54
2023-02-26T17:22:21.283Z,45.54
2023-02-26T17:24:48.389Z,46.60
2023-02-26T17:27:18.313Z,46.37
2023-02-26T17:29:50.783Z,47.24
2023-02-26T17:32:27.002Z,46.09
2023-02-26T17:34:54.242Z,46.09
2023-02-26T17:37:21.238Z,45.78
2023-02-26T17:39:47.630Z,45.72
2023-02-26T17:42:17.409Z,45.68
2023-02-26T17:44:44.248Z,45.76
2023-02-26T17:47:19.947Z,45.72
2023-02-26T17:49:46.652Z,47.41
2023-02-26T17:52:14.008Z,45.99
2023-02-26T17:54:40.374Z,45.88
2023-02-26T17:57:07.332Z,47.94
2023-02-26T17:59:34.032Z,46.75
2023-02-26T18:02:00.688Z,46.94
2023-02-26T18:04:27.263Z,48.02
2023-02-26T18:06:53.710Z,47.42
2023-02-26T18:09:20.060Z,47.11
2023-02-26T18:11:46.418Z,47.23
2023-02-26T18:14:12.719Z,48.28
2023-02-26T18:16:42.104Z,47.94
2023-02-26T18:19:13.745Z,47.71
2023-02-26T18:21:40.082Z,47.58
2023-02-26T18:24:06.955Z,47.55
2023-02-26T18:26:33.476Z,47.91
2023-02-26T18:28:59.882Z,48.03
2023-02-26T18:31:35.005Z,48.40
2023-02-26T18:34:01.974Z,47.65
2023-02-26T18:36:37.356Z,47.80
2023-02-26T18:39:06.163Z,48.00
2023-02-26T18:41:32.654Z,48.25
2023-02-26T18:43:59.187Z,47.21
2023-02-26T18:46:26.980Z,47.93
2023-02-26T18:48:53.417Z,47.93
2023-02-26T18:51:19.748Z,47.74
2023-02-26T18:53:46.129Z,48.91
2023-02-26T18:56:12.541Z,48.07
2023-02-26T18:58:40.532Z,48.45
2023-02-26T19:01:07.220Z,49.02
2023-02-26T19:03:33.585Z,49.45
2023-02-26T19:06:03.906Z,49.56
2023-02-26T19:08:30.714Z,49.82
2023-02-26T19:10:58.067Z,48.56
2023-02-26T19:13:24.844Z,49.42
2023-02-26T19:15:51.723Z,48.83
2023-02-26T19:18:18.472Z,49.09
2023-02-26T19:20:45.130Z,49.69
2023-02-26T19:23:11.773Z,49.73
2023-02-26T19:25:38.540Z,49.47
2023-02-26T19:28:05.878Z,49.90
2023-02-26T19:30:32.420Z,49.66
2023-02-26T19:32:59.266Z,49.99
2023-02-26T19:35:37.743Z,49.48
2023-02-26T19:38:10.411Z,49.45
2023-02-26T19:40:39.172Z,49.03
2023-02-26T19:43:08.602Z,49.38
2023-02-26T19:48:26.300Z,49.74
2023-02-26T19:51:01.202Z,49.05
2023-02-26T19:53:27.576Z,48.65
2023-02-26T19:55:56.189Z,48.66
2023-02-26T19:58:25.477Z,49.01
2023-02-26T20:00:53.634Z,48.98
2023-02-26T20:03:19.996Z,48.74
2023-02-26T20:05:47.558Z,48.29
2023-02-26T20:08:14.045Z,48.70
2023-02-26T20:10:42.605Z,49.40
2023-02-26T20:13:09.205Z,49.78
2023-02-26T20:15:36.229Z,49.46
2023-02-26T20:18:02.733Z,50.22
2023-02-26T20:20:29.230Z,50.56
2023-02-26T20:22:55.594Z,49.28
2023-02-26T20:25:22.182Z,50.42
2023-02-26T20:27:49.315Z,50.18
2023-02-26T20:30:15.751Z,50.84
2023-02-26T20:32:42.246Z,50.93
2023-02-26T20:35:09.099Z,51.44
2023-02-26T20:37:35.431Z,51.42
2023-02-26T20:40:02.191Z,51.74
2023-02-26T20:42:28.668Z,52.03
2023-02-26T20:44:56.510Z,52.17
2023-02-26T20:47:23.361Z,52.89
2023-02-26T20:49:49.841Z,52.85
2023-02-26T20:52:16.347Z,52.77
2023-02-26T20:54:42.976Z,53.73
2023-02-26T20:57:11.877Z,52.68
2023-02-26T20:59:38.318Z,52.90
2023-02-26T21:02:04.859Z,53.95
2023-02-26T21:04:33.714Z,53.39
2023-02-26T21:07:14.418Z,53.47
2023-02-26T21:09:41.030Z,54.08
2023-02-26T21:12:07.552Z,54.75
2023-02-26T21:14:44.004Z,55.22
2023-02-26T21:17:13.856Z,55.66
2023-02-26T21:19:54.509Z,54.90
2023-02-26T21:22:29.970Z,54.66
2023-02-26T21:25:08.339Z,55.07
2023-02-26T21:27:35.522Z,55.55
2023-02-26T21:30:02.152Z,55.17
2023-02-26T21:32:30.395Z,56.17
2023-02-26T21:34:59.181Z,55.91
2023-02-26T21:37:26.152Z,55.85
2023-02-26T21:39:53.137Z,55.94
2023-02-26T21:42:19.889Z,55.62
2023-02-26T21:44:48.487Z,56.48
2023-02-26T21:47:15.013Z,56.14
2023-02-26T21:49:41.354Z,56.67
2023-02-26T21:52:08.091Z,55.86
2023-02-26T21:54:34.572Z,56.69
2023-02-26T21:57:00.939Z,56.38
2023-02-26T21:59:27.623Z,56.66
2023-02-26T22:01:54.119Z,56.64
2023-02-26T22:04:20.752Z,56.67
2023-02-26T22:06:47.523Z,56.71
2023-02-26T22:09:14.004Z,56.94
2023-02-26T22:11:40.366Z,57.50
2023-02-26T22:14:06.705Z,57.12
2023-02-26T22:16:33.169Z,57.12
2023-02-26T22:18:59.571Z,57.47
2023-02-26T22:21:26.727Z,57.95
2023-02-26T22:23:53.237Z,57.95
2023-02-26T22:26:23.953Z,58.08
2023-02-26T22:28:53.227Z,58.45
2023-02-26T22:31:20.380Z,57.42
2023-02-26T22:33:50.338Z,57.48
2023-02-26T22:36:16.990Z,57.32
2023-02-26T22:38:44.854Z,57.66
2023-02-26T22:41:14.148Z,56.90
2023-02-26T22:43:41.969Z,58.09
2023-02-26T22:46:09.917Z,58.13
2023-02-26T22:48:37.796Z,58.50
2023-02-26T22:51:04.409Z,58.31
2023-02-26T22:53:32.835Z,58.06
2023-02-26T22:56:00.409Z,57.93
2023-02-26T22:58:27.165Z,57.59
2023-02-26T23:01:02.268Z,58.00
2023-02-26T23:03:30.045Z,58.54
2023-02-26T23:05:57.382Z,58.37
2023-02-26T23:08:24.265Z,58.53
2023-02-26T23:10:53.323Z,57.94
2023-02-26T23:13:19.718Z,57.92
2023-02-26T23:15:47.036Z,58.12
2023-02-26T23:18:13.694Z,58.43
2023-02-26T23:20:40.325Z,58.36
2023-02-26T23:23:06.758Z,58.44
2023-02-26T23:25:33.132Z,59.38
2023-02-26T23:27:59.533Z,58.16
2023-02-26T23:30:27.306Z,58.47
2023-02-26T23:32:56.581Z,59.29
2023-02-26T23:35:23.155Z,59.71
2023-02-26T23:37:49.569Z,58.67
2023-02-26T23:40:16.181Z,59.54
2023-02-26T23:42:42.708Z,59.61
2023-02-26T23:45:10.455Z,59.88
2023-02-26T23:47:37.212Z,59.87
2023-02-26T23:50:04.611Z,59.35
2023-02-26T23:52:31.546Z,59.10
2023-02-26T23:55:01.784Z,59.11
2023-02-26T23:57:28.484Z,59.59
2023-02-26T23:59:55.254Z,59.56
